sensor_id;sensor_type;location;lat;lon;timestamp;P1;durP1;ratioP1;P2;durP2;ratioP2
61204;SDS011;47068;55.780;37.520;2022-07-06T00:01:09;24.92;;;15.48;;
61204;SDS011;47068;55.780;37.520;2022-07-06T00:06:00;24.75;;;15.77;;
61204;SDS011;47068;55.780;37.520;2022-07-06T00:10:51;24.63;;;14.63;;
61204;SDS011;47068;55.780;37.520;2022-07-06T00:13:17;22.10;;;15.27;;
61204;SDS011;47068;55.780;37.520;2022-07-06T00:15:44;24.88;;;16.65;;
61204;SDS011;47068;55.780;37.520;2022-07-06T00:18:10;24.20;;;16.60;;
61204;SDS011;47068;55.780;37.520;2022-07-06T00:23:00;26.45;;;16.83;;
61204;SDS011;47068;55.780;37.520;2022-07-06T00:27:51;25.70;;;15.82;;
61204;SDS011;47068;55.780;37.520;2022-07-06T00:32:42;21.30;;;16.15;;
61204;SDS011;47068;55.780;37.520;2022-07-06T00:35:07;23.50;;;15.20;;
61204;SDS011;47068;55.780;37.520;2022-07-06T00:37:33;26.50;;;16.48;;
61204;SDS011;47068;55.780;37.520;2022-07-06T00:42:24;27.17;;;16.45;;
61204;SDS011;47068;55.780;37.520;2022-07-06T00:47:15;25.40;;;16.55;;
61204;SDS011;47068;55.780;37.520;2022-07-06T00:49:40;27.67;;;15.68;;
61204;SDS011;47068;55.780;37.520;2022-07-06T00:52:24;24.77;;;15.00;;
61204;SDS011;47068;55.780;37.520;2022-07-06T00:54:50;27.10;;;16.00;;
61204;SDS011;47068;55.780;37.520;2022-07-06T00:59:43;23.45;;;15.43;;
61204;SDS011;47068;55.780;37.520;2022-07-06T01:04:34;32.17;;;17.40;;
61204;SDS011;47068;55.780;37.520;2022-07-06T01:09:25;28.83;;;16.60;;
61204;SDS011;47068;55.780;37.520;2022-07-06T01:11:51;29.23;;;15.48;;
61204;SDS011;47068;55.780;37.520;2022-07-06T01:14:17;28.02;;;16.38;;
61204;SDS011;47068;55.780;37.520;2022-07-06T01:19:09;24.67;;;15.13;;
61204;SDS011;47068;55.780;37.520;2022-07-06T01:21:37;24.02;;;14.95;;
61204;SDS011;47068;55.780;37.520;2022-07-06T01:24:03;26.73;;;15.60;;
61204;SDS011;47068;55.780;37.520;2022-07-06T01:26:29;24.88;;;15.55;;
61204;SDS011;47068;55.780;37.520;2022-07-06T01:28:55;25.95;;;15.57;;
61204;SDS011;47068;55.780;37.520;2022-07-06T01:31:21;24.85;;;15.48;;
61204;SDS011;47068;55.780;37.520;2022-07-06T01:33:48;25.98;;;16.52;;
61204;SDS011;47068;55.780;37.520;2022-07-06T01:36:15;23.55;;;15.82;;
61204;SDS011;47068;55.780;37.520;2022-07-06T01:38:48;24.00;;;15.82;;
61204;SDS011;47068;55.780;37.520;2022-07-06T01:41:20;27.40;;;15.50;;
61204;SDS011;47068;55.780;37.520;2022-07-06T01:43:46;25.80;;;15.45;;
61204;SDS011;47068;55.780;37.520;2022-07-06T01:46:12;28.42;;;15.48;;
61204;SDS011;47068;55.780;37.520;2022-07-06T01:48:38;23.80;;;16.33;;
61204;SDS011;47068;55.780;37.520;2022-07-06T01:51:04;28.00;;;17.17;;
61204;SDS011;47068;55.780;37.520;2022-07-06T01:53:30;31.85;;;16.45;;
61204;SDS011;47068;55.780;37.520;2022-07-06T01:55:56;26.48;;;15.50;;
61204;SDS011;47068;55.780;37.520;2022-07-06T02:00:47;29.80;;;16.27;;
61204;SDS011;47068;55.780;37.520;2022-07-06T02:03:12;26.30;;;16.85;;
61204;SDS011;47068;55.780;37.520;2022-07-06T02:08:03;31.15;;;15.32;;
61204;SDS011;47068;55.780;37.520;2022-07-06T02:10:28;25.98;;;15.98;;
61204;SDS011;47068;55.780;37.520;2022-07-06T02:12:54;28.63;;;14.88;;
61204;SDS011;47068;55.780;37.520;2022-07-06T02:17:45;23.65;;;14.73;;
61204;SDS011;47068;55.780;37.520;2022-07-06T02:22:35;22.88;;;14.85;;
61204;SDS011;47068;55.780;37.520;2022-07-06T02:25:01;23.77;;;15.10;;
61204;SDS011;47068;55.780;37.520;2022-07-06T02:29:52;23.33;;;15.20;;
61204;SDS011;47068;55.780;37.520;2022-07-06T02:32:18;25.83;;;15.68;;
61204;SDS011;47068;55.780;37.520;2022-07-06T02:37:08;22.27;;;15.45;;
61204;SDS011;47068;55.780;37.520;2022-07-06T02:42:00;23.25;;;15.45;;
61204;SDS011;47068;55.780;37.520;2022-07-06T02:46:50;30.00;;;16.23;;
61204;SDS011;47068;55.780;37.520;2022-07-06T02:49:16;23.77;;;15.10;;
61204;SDS011;47068;55.780;37.520;2022-07-06T02:54:07;26.17;;;15.18;;
61204;SDS011;47068;55.780;37.520;2022-07-06T02:58:57;25.88;;;16.75;;
61204;SDS011;47068;55.780;37.520;2022-07-06T03:03:48;22.67;;;14.30;;
61204;SDS011;47068;55.780;37.520;2022-07-06T03:06:14;27.65;;;16.17;;
61204;SDS011;47068;55.780;37.520;2022-07-06T03:11:04;19.42;;;14.60;;
61204;SDS011;47068;55.780;37.520;2022-07-06T03:15:55;26.05;;;15.73;;
61204;SDS011;47068;55.780;37.520;2022-07-06T03:18:21;24.08;;;16.70;;
61204;SDS011;47068;55.780;37.520;2022-07-06T03:20:47;23.50;;;17.20;;
61204;SDS011;47068;55.780;37.520;2022-07-06T03:25:38;26.17;;;15.90;;
61204;SDS011;47068;55.780;37.520;2022-07-06T03:30:29;22.33;;;15.77;;
61204;SDS011;47068;55.780;37.520;2022-07-06T03:35:20;22.92;;;16.27;;
61204;SDS011;47068;55.780;37.520;2022-07-06T03:40:11;26.55;;;16.85;;
61204;SDS011;47068;55.780;37.520;2022-07-06T03:45:03;22.15;;;14.88;;
61204;SDS011;47068;55.780;37.520;2022-07-06T03:47:29;28.77;;;16.40;;
61204;SDS011;47068;55.780;37.520;2022-07-06T03:52:20;25.88;;;16.00;;
61204;SDS011;47068;55.780;37.520;2022-07-06T03:57:11;23.05;;;15.13;;
61204;SDS011;47068;55.780;37.520;2022-07-06T03:59:38;21.13;;;13.90;;
61204;SDS011;47068;55.780;37.520;2022-07-06T04:02:04;24.63;;;14.07;;
61204;SDS011;47068;55.780;37.520;2022-07-06T04:04:29;23.58;;;13.50;;
61204;SDS011;47068;55.780;37.520;2022-07-06T04:09:20;22.83;;;13.88;;
61204;SDS011;47068;55.780;37.520;2022-07-06T04:11:46;18.88;;;14.27;;
61204;SDS011;47068;55.780;37.520;2022-07-06T04:16:37;25.27;;;14.57;;
61204;SDS011;47068;55.780;37.520;2022-07-06T04:19:02;17.63;;;13.15;;
61204;SDS011;47068;55.780;37.520;2022-07-06T04:21:30;21.17;;;14.13;;
61204;SDS011;47068;55.780;37.520;2022-07-06T04:23:55;19.30;;;14.05;;
61204;SDS011;47068;55.780;37.520;2022-07-06T04:26:21;19.98;;;13.75;;
61204;SDS011;47068;55.780;37.520;2022-07-06T04:31:12;16.63;;;12.93;;
61204;SDS011;47068;55.780;37.520;2022-07-06T04:33:40;18.35;;;12.77;;
61204;SDS011;47068;55.780;37.520;2022-07-06T04:36:09;18.38;;;12.65;;
61204;SDS011;47068;55.780;37.520;2022-07-06T04:38:35;16.13;;;12.13;;
61204;SDS011;47068;55.780;37.520;2022-07-06T04:41:00;16.58;;;12.98;;
61204;SDS011;47068;55.780;37.520;2022-07-06T04:43:26;19.25;;;13.07;;
61204;SDS011;47068;55.780;37.520;2022-07-06T04:45:51;16.85;;;11.38;;
61204;SDS011;47068;55.780;37.520;2022-07-06T04:48:17;18.92;;;13.23;;
61204;SDS011;47068;55.780;37.520;2022-07-06T04:50:42;22.63;;;15.45;;
61204;SDS011;47068;55.780;37.520;2022-07-06T04:53:07;20.52;;;14.02;;
61204;SDS011;47068;55.780;37.520;2022-07-06T04:55:33;16.00;;;13.20;;
61204;SDS011;47068;55.780;37.520;2022-07-06T04:57:59;17.55;;;13.05;;
61204;SDS011;47068;55.780;37.520;2022-07-06T05:00:24;18.05;;;12.52;;
61204;SDS011;47068;55.780;37.520;2022-07-06T05:02:52;16.27;;;11.93;;
61204;SDS011;47068;55.780;37.520;2022-07-06T05:05:18;18.05;;;11.20;;
61204;SDS011;47068;55.780;37.520;2022-07-06T05:07:43;16.10;;;12.45;;
61204;SDS011;47068;55.780;37.520;2022-07-06T05:10:09;14.52;;;11.40;;
61204;SDS011;47068;55.780;37.520;2022-07-06T05:12:36;16.35;;;10.75;;
61204;SDS011;47068;55.780;37.520;2022-07-06T05:15:02;16.30;;;11.20;;
61204;SDS011;47068;55.780;37.520;2022-07-06T05:17:28;19.63;;;11.02;;
61204;SDS011;47068;55.780;37.520;2022-07-06T05:19:53;15.82;;;11.15;;
61204;SDS011;47068;55.780;37.520;2022-07-06T05:22:19;14.20;;;11.07;;
61204;SDS011;47068;55.780;37.520;2022-07-06T05:24:47;17.85;;;11.60;;
61204;SDS011;47068;55.780;37.520;2022-07-06T05:27:13;16.42;;;11.88;;
61204;SDS011;47068;55.780;37.520;2022-07-06T05:29:38;19.13;;;11.93;;
61204;SDS011;47068;55.780;37.520;2022-07-06T05:32:03;17.67;;;12.30;;
61204;SDS011;47068;55.780;37.520;2022-07-06T05:34:29;15.27;;;11.63;;
61204;SDS011;47068;55.780;37.520;2022-07-06T05:36:55;18.48;;;12.43;;
61204;SDS011;47068;55.780;37.520;2022-07-06T05:39:20;17.48;;;12.10;;
61204;SDS011;47068;55.780;37.520;2022-07-06T05:41:47;15.90;;;11.32;;
61204;SDS011;47068;55.780;37.520;2022-07-06T05:44:13;18.20;;;12.10;;
61204;SDS011;47068;55.780;37.520;2022-07-06T05:46:39;16.40;;;11.93;;
61204;SDS011;47068;55.780;37.520;2022-07-06T05:49:04;15.40;;;10.77;;
61204;SDS011;47068;55.780;37.520;2022-07-06T05:51:48;13.35;;;9.88;;
61204;SDS011;47068;55.780;37.520;2022-07-06T05:54:14;15.73;;;10.55;;
61204;SDS011;47068;55.780;37.520;2022-07-06T05:56:40;12.73;;;10.90;;
61204;SDS011;47068;55.780;37.520;2022-07-06T05:59:06;16.33;;;10.95;;
61204;SDS011;47068;55.780;37.520;2022-07-06T06:01:31;12.25;;;10.55;;
61204;SDS011;47068;55.780;37.520;2022-07-06T06:03:57;12.90;;;9.95;;
61204;SDS011;47068;55.780;37.520;2022-07-06T06:06:24;13.02;;;9.10;;
61204;SDS011;47068;55.780;37.520;2022-07-06T06:08:50;10.30;;;8.70;;
61204;SDS011;47068;55.780;37.520;2022-07-06T06:11:15;10.07;;;9.07;;
61204;SDS011;47068;55.780;37.520;2022-07-06T06:13:41;13.00;;;9.32;;
61204;SDS011;47068;55.780;37.520;2022-07-06T06:16:06;12.50;;;9.38;;
61204;SDS011;47068;55.780;37.520;2022-07-06T06:18:31;11.57;;;10.18;;
61204;SDS011;47068;55.780;37.520;2022-07-06T06:20:57;13.77;;;9.25;;
61204;SDS011;47068;55.780;37.520;2022-07-06T06:23:22;13.95;;;9.57;;
61204;SDS011;47068;55.780;37.520;2022-07-06T06:25:48;13.18;;;9.30;;
61204;SDS011;47068;55.780;37.520;2022-07-06T06:28:13;12.18;;;8.65;;
61204;SDS011;47068;55.780;37.520;2022-07-06T06:30:39;13.40;;;9.63;;
61204;SDS011;47068;55.780;37.520;2022-07-06T06:33:08;11.13;;;9.23;;
61204;SDS011;47068;55.780;37.520;2022-07-06T06:35:33;10.90;;;9.77;;
61204;SDS011;47068;55.780;37.520;2022-07-06T06:37:59;11.20;;;9.35;;
61204;SDS011;47068;55.780;37.520;2022-07-06T06:40:24;12.65;;;9.80;;
61204;SDS011;47068;55.780;37.520;2022-07-06T06:42:50;12.20;;;9.02;;
61204;SDS011;47068;55.780;37.520;2022-07-06T06:45:15;10.82;;;9.45;;
61204;SDS011;47068;55.780;37.520;2022-07-06T06:47:41;22.40;;;9.68;;
61204;SDS011;47068;55.780;37.520;2022-07-06T06:50:06;11.88;;;10.65;;
61204;SDS011;47068;55.780;37.520;2022-07-06T06:52:32;15.05;;;10.63;;
61204;SDS011;47068;55.780;37.520;2022-07-06T06:54:57;13.63;;;10.23;;
61204;SDS011;47068;55.780;37.520;2022-07-06T06:57:23;14.57;;;10.05;;
61204;SDS011;47068;55.780;37.520;2022-07-06T06:59:48;12.50;;;10.85;;
61204;SDS011;47068;55.780;37.520;2022-07-06T07:02:14;12.73;;;10.65;;
61204;SDS011;47068;55.780;37.520;2022-07-06T07:04:39;15.65;;;12.38;;
61204;SDS011;47068;55.780;37.520;2022-07-06T07:07:05;11.95;;;10.85;;
61204;SDS011;47068;55.780;37.520;2022-07-06T07:09:30;11.73;;;10.52;;
61204;SDS011;47068;55.780;37.520;2022-07-06T07:11:56;14.98;;;11.02;;
61204;SDS011;47068;55.780;37.520;2022-07-06T07:14:22;12.23;;;10.70;;
61204;SDS011;47068;55.780;37.520;2022-07-06T07:16:48;13.90;;;10.90;;
61204;SDS011;47068;55.780;37.520;2022-07-06T07:19:13;17.90;;;10.52;;
61204;SDS011;47068;55.780;37.520;2022-07-06T07:21:39;11.75;;;10.55;;
61204;SDS011;47068;55.780;37.520;2022-07-06T07:24:04;14.05;;;11.07;;
61204;SDS011;47068;55.780;37.520;2022-07-06T07:26:30;13.00;;;11.60;;
61204;SDS011;47068;55.780;37.520;2022-07-06T07:28:56;15.88;;;12.20;;
61204;SDS011;47068;55.780;37.520;2022-07-06T07:31:21;15.05;;;10.40;;
61204;SDS011;47068;55.780;37.520;2022-07-06T07:33:47;13.05;;;11.68;;
61204;SDS011;47068;55.780;37.520;2022-07-06T07:36:13;13.13;;;11.73;;
61204;SDS011;47068;55.780;37.520;2022-07-06T07:38:38;13.50;;;12.10;;
61204;SDS011;47068;55.780;37.520;2022-07-06T07:41:04;13.02;;;10.75;;
61204;SDS011;47068;55.780;37.520;2022-07-06T07:43:31;13.55;;;12.25;;
61204;SDS011;47068;55.780;37.520;2022-07-06T07:45:56;13.40;;;11.40;;
61204;SDS011;47068;55.780;37.520;2022-07-06T07:48:22;14.27;;;12.75;;
61204;SDS011;47068;55.780;37.520;2022-07-06T07:50:47;13.32;;;11.93;;
61204;SDS011;47068;55.780;37.520;2022-07-06T07:53:13;16.02;;;11.80;;
61204;SDS011;47068;55.780;37.520;2022-07-06T07:55:38;13.45;;;12.25;;
61204;SDS011;47068;55.780;37.520;2022-07-06T07:58:04;12.40;;;11.15;;
61204;SDS011;47068;55.780;37.520;2022-07-06T08:00:29;16.88;;;12.23;;
61204;SDS011;47068;55.780;37.520;2022-07-06T08:02:55;14.85;;;13.23;;
61204;SDS011;47068;55.780;37.520;2022-07-06T08:05:20;14.45;;;12.95;;
61204;SDS011;47068;55.780;37.520;2022-07-06T08:07:46;14.88;;;13.68;;
61204;SDS011;47068;55.780;37.520;2022-07-06T08:10:12;14.20;;;13.05;;
61204;SDS011;47068;55.780;37.520;2022-07-06T08:12:37;15.25;;;13.73;;
61204;SDS011;47068;55.780;37.520;2022-07-06T08:15:04;15.95;;;14.52;;
61204;SDS011;47068;55.780;37.520;2022-07-06T08:17:30;15.93;;;14.55;;
61204;SDS011;47068;55.780;37.520;2022-07-06T08:19:56;14.88;;;13.43;;
61204;SDS011;47068;55.780;37.520;2022-07-06T08:22:22;15.60;;;14.00;;
61204;SDS011;47068;55.780;37.520;2022-07-06T08:24:48;16.40;;;12.70;;
61204;SDS011;47068;55.780;37.520;2022-07-06T08:27:13;13.50;;;12.18;;
61204;SDS011;47068;55.780;37.520;2022-07-06T08:29:39;16.77;;;11.75;;
61204;SDS011;47068;55.780;37.520;2022-07-06T08:32:04;16.38;;;12.18;;
61204;SDS011;47068;55.780;37.520;2022-07-06T08:34:30;13.52;;;12.20;;
61204;SDS011;47068;55.780;37.520;2022-07-06T08:36:56;13.77;;;12.05;;
61204;SDS011;47068;55.780;37.520;2022-07-06T08:39:21;16.08;;;12.55;;
61204;SDS011;47068;55.780;37.520;2022-07-06T08:41:47;16.35;;;11.50;;
61204;SDS011;47068;55.780;37.520;2022-07-06T08:44:15;12.95;;;11.65;;
61204;SDS011;47068;55.780;37.520;2022-07-06T08:46:41;14.90;;;11.40;;
61204;SDS011;47068;55.780;37.520;2022-07-06T08:49:07;12.90;;;11.40;;
61204;SDS011;47068;55.780;37.520;2022-07-06T08:51:34;12.82;;;11.52;;
61204;SDS011;47068;55.780;37.520;2022-07-06T08:54:04;18.52;;;12.43;;
61204;SDS011;47068;55.780;37.520;2022-07-06T08:56:29;14.50;;;11.82;;
61204;SDS011;47068;55.780;37.520;2022-07-06T08:58:57;12.68;;;10.70;;
61204;SDS011;47068;55.780;37.520;2022-07-06T09:01:23;14.75;;;11.38;;
61204;SDS011;47068;55.780;37.520;2022-07-06T09:03:49;16.13;;;10.95;;
61204;SDS011;47068;55.780;37.520;2022-07-06T09:06:16;15.43;;;10.57;;
61204;SDS011;47068;55.780;37.520;2022-07-06T09:08:47;16.08;;;11.25;;
61204;SDS011;47068;55.780;37.520;2022-07-06T09:11:14;14.90;;;10.73;;
61204;SDS011;47068;55.780;37.520;2022-07-06T09:13:40;13.27;;;10.30;;
61204;SDS011;47068;55.780;37.520;2022-07-06T09:16:12;13.13;;;10.30;;
61204;SDS011;47068;55.780;37.520;2022-07-06T09:18:43;13.75;;;9.75;;
61204;SDS011;47068;55.780;37.520;2022-07-06T09:21:09;13.70;;;9.98;;
61204;SDS011;47068;55.780;37.520;2022-07-06T09:23:35;17.17;;;10.43;;
61204;SDS011;47068;55.780;37.520;2022-07-06T09:26:02;15.40;;;9.95;;
61204;SDS011;47068;55.780;37.520;2022-07-06T09:28:40;15.23;;;10.75;;
61204;SDS011;47068;55.780;37.520;2022-07-06T09:31:07;14.93;;;9.40;;
61204;SDS011;47068;55.780;37.520;2022-07-06T09:33:34;14.00;;;10.35;;
61204;SDS011;47068;55.780;37.520;2022-07-06T09:36:00;17.10;;;11.15;;
61204;SDS011;47068;55.780;37.520;2022-07-06T09:38:27;16.25;;;11.48;;
61204;SDS011;47068;55.780;37.520;2022-07-06T09:40:52;15.93;;;10.13;;
61204;SDS011;47068;55.780;37.520;2022-07-06T09:43:19;14.30;;;11.48;;
61204;SDS011;47068;55.780;37.520;2022-07-06T09:45:50;12.57;;;10.40;;
61204;SDS011;47068;55.780;37.520;2022-07-06T09:48:27;15.07;;;10.73;;
61204;SDS011;47068;55.780;37.520;2022-07-06T09:50:54;16.80;;;10.55;;
61204;SDS011;47068;55.780;37.520;2022-07-06T09:53:21;14.90;;;10.70;;
61204;SDS011;47068;55.780;37.520;2022-07-06T09:55:52;12.88;;;10.60;;
61204;SDS011;47068;55.780;37.520;2022-07-06T09:58:19;15.75;;;11.73;;
61204;SDS011;47068;55.780;37.520;2022-07-06T10:00:46;15.20;;;12.13;;
61204;SDS011;47068;55.780;37.520;2022-07-06T10:03:13;16.38;;;12.13;;
61204;SDS011;47068;55.780;37.520;2022-07-06T10:05:41;18.92;;;11.27;;
61204;SDS011;47068;55.780;37.520;2022-07-06T10:08:09;15.27;;;10.75;;
61204;SDS011;47068;55.780;37.520;2022-07-06T10:10:36;15.07;;;11.73;;
61204;SDS011;47068;55.780;37.520;2022-07-06T10:13:02;16.05;;;11.75;;
61204;SDS011;47068;55.780;37.520;2022-07-06T10:15:30;19.45;;;12.55;;
61204;SDS011;47068;55.780;37.520;2022-07-06T10:17:57;16.58;;;11.60;;
61204;SDS011;47068;55.780;37.520;2022-07-06T10:20:23;15.95;;;11.25;;
61204;SDS011;47068;55.780;37.520;2022-07-06T10:22:53;15.15;;;11.23;;
61204;SDS011;47068;55.780;37.520;2022-07-06T10:25:22;15.25;;;11.20;;
61204;SDS011;47068;55.780;37.520;2022-07-06T10:27:48;15.90;;;11.48;;
61204;SDS011;47068;55.780;37.520;2022-07-06T10:30:14;13.93;;;12.05;;
61204;SDS011;47068;55.780;37.520;2022-07-06T10:32:41;15.05;;;11.65;;
61204;SDS011;47068;55.780;37.520;2022-07-06T10:35:08;13.45;;;11.35;;
61204;SDS011;47068;55.780;37.520;2022-07-06T10:37:34;14.75;;;11.75;;
61204;SDS011;47068;55.780;37.520;2022-07-06T10:40:00;14.95;;;12.15;;
61204;SDS011;47068;55.780;37.520;2022-07-06T10:43:08;15.40;;;11.60;;
61204;SDS011;47068;55.780;37.520;2022-07-06T10:45:54;11.85;;;10.50;;
61204;SDS011;47068;55.780;37.520;2022-07-06T10:48:19;19.52;;;12.98;;
61204;SDS011;47068;55.780;37.520;2022-07-06T10:50:54;16.58;;;12.07;;
61204;SDS011;47068;55.780;37.520;2022-07-06T10:53:54;16.60;;;12.75;;
61204;SDS011;47068;55.780;37.520;2022-07-06T10:56:20;22.48;;;14.30;;
61204;SDS011;47068;55.780;37.520;2022-07-06T10:59:09;17.77;;;13.85;;
61204;SDS011;47068;55.780;37.520;2022-07-06T11:01:36;17.77;;;12.68;;
61204;SDS011;47068;55.780;37.520;2022-07-06T11:06:29;16.65;;;13.65;;
61204;SDS011;47068;55.780;37.520;2022-07-06T11:09:10;17.58;;;11.30;;
61204;SDS011;47068;55.780;37.520;2022-07-06T11:19:16;15.65;;;12.52;;
61204;SDS011;47068;55.780;37.520;2022-07-06T11:24:09;16.95;;;12.65;;
61204;SDS011;47068;55.780;37.520;2022-07-06T11:26:37;16.02;;;11.63;;
61204;SDS011;47068;55.780;37.520;2022-07-06T11:29:06;16.73;;;11.25;;
61204;SDS011;47068;55.780;37.520;2022-07-06T11:31:34;14.10;;;10.18;;
61204;SDS011;47068;55.780;37.520;2022-07-06T11:34:02;13.68;;;10.77;;
61204;SDS011;47068;55.780;37.520;2022-07-06T11:36:28;12.45;;;10.27;;
61204;SDS011;47068;55.780;37.520;2022-07-06T11:38:54;13.60;;;11.45;;
61204;SDS011;47068;55.780;37.520;2022-07-06T11:41:19;14.43;;;10.63;;
61204;SDS011;47068;55.780;37.520;2022-07-06T11:43:46;12.95;;;10.30;;
61204;SDS011;47068;55.780;37.520;2022-07-06T11:46:19;12.38;;;9.85;;
61204;SDS011;47068;55.780;37.520;2022-07-06T11:48:47;11.77;;;10.18;;
61204;SDS011;47068;55.780;37.520;2022-07-06T11:51:14;13.07;;;10.50;;
61204;SDS011;47068;55.780;37.520;2022-07-06T11:53:48;11.80;;;10.55;;
61204;SDS011;47068;55.780;37.520;2022-07-06T11:56:26;13.15;;;10.75;;
61204;SDS011;47068;55.780;37.520;2022-07-06T11:58:57;12.75;;;10.55;;
61204;SDS011;47068;55.780;37.520;2022-07-06T12:01:24;11.55;;;10.35;;
61204;SDS011;47068;55.780;37.520;2022-07-06T12:03:52;12.65;;;10.77;;
61204;SDS011;47068;55.780;37.520;2022-07-06T12:06:22;15.48;;;11.30;;
61204;SDS011;47068;55.780;37.520;2022-07-06T12:08:50;11.80;;;10.52;;
61204;SDS011;47068;55.780;37.520;2022-07-06T12:11:24;13.57;;;10.52;;
61204;SDS011;47068;55.780;37.520;2022-07-06T12:13:54;12.40;;;9.65;;
61204;SDS011;47068;55.780;37.520;2022-07-06T12:16:34;14.73;;;10.05;;
61204;SDS011;47068;55.780;37.520;2022-07-06T12:19:01;14.20;;;10.43;;
61204;SDS011;47068;55.780;37.520;2022-07-06T12:21:28;13.30;;;10.65;;
61204;SDS011;47068;55.780;37.520;2022-07-06T12:23:54;11.93;;;9.60;;
61204;SDS011;47068;55.780;37.520;2022-07-06T12:26:21;10.90;;;8.98;;
61204;SDS011;47068;55.780;37.520;2022-07-06T12:31:32;14.13;;;9.60;;
61204;SDS011;47068;55.780;37.520;2022-07-06T12:34:16;10.70;;;9.60;;
61204;SDS011;47068;55.780;37.520;2022-07-06T12:36:47;12.15;;;9.77;;
61204;SDS011;47068;55.780;37.520;2022-07-06T12:39:15;10.23;;;9.13;;
61204;SDS011;47068;55.780;37.520;2022-07-06T12:41:49;10.98;;;9.88;;
61204;SDS011;47068;55.780;37.520;2022-07-06T12:44:30;11.52;;;9.65;;
61204;SDS011;47068;55.780;37.520;2022-07-06T12:47:06;11.38;;;9.70;;
61204;SDS011;47068;55.780;37.520;2022-07-06T12:49:33;11.43;;;9.35;;
61204;SDS011;47068;55.780;37.520;2022-07-06T12:54:46;11.82;;;10.35;;
61204;SDS011;47068;55.780;37.520;2022-07-06T12:57:20;12.82;;;10.75;;
61204;SDS011;47068;55.780;37.520;2022-07-06T13:04:43;15.75;;;11.30;;
61204;SDS011;47068;55.780;37.520;2022-07-06T13:07:20;12.88;;;10.55;;
61204;SDS011;47068;55.780;37.520;2022-07-06T13:09:45;11.90;;;10.70;;
61204;SDS011;47068;55.780;37.520;2022-07-06T13:12:11;15.88;;;11.13;;
61204;SDS011;47068;55.780;37.520;2022-07-06T13:14:36;11.60;;;10.40;;
61204;SDS011;47068;55.780;37.520;2022-07-06T13:17:02;11.68;;;9.93;;
61204;SDS011;47068;55.780;37.520;2022-07-06T13:19:30;10.82;;;9.73;;
61204;SDS011;47068;55.780;37.520;2022-07-06T13:21:55;10.98;;;9.85;;
61204;SDS011;47068;55.780;37.520;2022-07-06T13:24:21;11.63;;;10.52;;
61204;SDS011;47068;55.780;37.520;2022-07-06T13:26:46;12.63;;;10.35;;
61204;SDS011;47068;55.780;37.520;2022-07-06T13:29:12;11.85;;;10.45;;
61204;SDS011;47068;55.780;37.520;2022-07-06T13:31:38;13.27;;;10.30;;
61204;SDS011;47068;55.780;37.520;2022-07-06T13:34:04;11.38;;;10.23;;
61204;SDS011;47068;55.780;37.520;2022-07-06T13:36:49;13.00;;;9.27;;
61204;SDS011;47068;55.780;37.520;2022-07-06T13:39:15;11.30;;;9.48;;
61204;SDS011;47068;55.780;37.520;2022-07-06T13:41:41;11.77;;;9.55;;
61204;SDS011;47068;55.780;37.520;2022-07-06T13:44:07;12.13;;;10.18;;
61204;SDS011;47068;55.780;37.520;2022-07-06T13:46:34;9.95;;;8.90;;
61204;SDS011;47068;55.780;37.520;2022-07-06T13:49:01;15.02;;;11.18;;
61204;SDS011;47068;55.780;37.520;2022-07-06T13:51:28;16.42;;;11.32;;
61204;SDS011;47068;55.780;37.520;2022-07-06T13:53:53;16.17;;;10.98;;
61204;SDS011;47068;55.780;37.520;2022-07-06T13:56:19;15.32;;;11.57;;
61204;SDS011;47068;55.780;37.520;2022-07-06T13:58:45;16.90;;;12.43;;
61204;SDS011;47068;55.780;37.520;2022-07-06T14:01:11;14.93;;;11.68;;
61204;SDS011;47068;55.780;37.520;2022-07-06T14:03:37;13.63;;;10.68;;
61204;SDS011;47068;55.780;37.520;2022-07-06T14:06:03;15.85;;;11.43;;
61204;SDS011;47068;55.780;37.520;2022-07-06T14:08:32;13.68;;;11.45;;
61204;SDS011;47068;55.780;37.520;2022-07-06T14:10:58;17.80;;;11.60;;
61204;SDS011;47068;55.780;37.520;2022-07-06T14:13:24;15.73;;;11.50;;
61204;SDS011;47068;55.780;37.520;2022-07-06T14:15:50;14.18;;;11.70;;
61204;SDS011;47068;55.780;37.520;2022-07-06T14:18:16;18.17;;;11.75;;
61204;SDS011;47068;55.780;37.520;2022-07-06T14:20:43;18.40;;;12.18;;
61204;SDS011;47068;55.780;37.520;2022-07-06T14:23:10;19.27;;;12.48;;
61204;SDS011;47068;55.780;37.520;2022-07-06T14:25:36;13.23;;;10.90;;
61204;SDS011;47068;55.780;37.520;2022-07-06T14:28:02;14.95;;;12.45;;
61204;SDS011;47068;55.780;37.520;2022-07-06T14:30:27;16.35;;;11.80;;
61204;SDS011;47068;55.780;37.520;2022-07-06T14:32:53;13.00;;;11.50;;
61204;SDS011;47068;55.780;37.520;2022-07-06T14:35:38;15.90;;;11.43;;
61204;SDS011;47068;55.780;37.520;2022-07-06T14:38:05;14.30;;;11.65;;
61204;SDS011;47068;55.780;37.520;2022-07-06T14:40:31;16.08;;;11.85;;
61204;SDS011;47068;55.780;37.520;2022-07-06T14:42:58;14.63;;;11.80;;
61204;SDS011;47068;55.780;37.520;2022-07-06T14:45:24;16.98;;;12.30;;
61204;SDS011;47068;55.780;37.520;2022-07-06T14:47:49;14.23;;;11.75;;
61204;SDS011;47068;55.780;37.520;2022-07-06T14:50:15;13.70;;;12.27;;
61204;SDS011;47068;55.780;37.520;2022-07-06T14:52:41;14.13;;;12.02;;
61204;SDS011;47068;55.780;37.520;2022-07-06T14:55:06;13.07;;;11.43;;
61204;SDS011;47068;55.780;37.520;2022-07-06T14:57:32;16.90;;;11.77;;
61204;SDS011;47068;55.780;37.520;2022-07-06T14:59:58;17.25;;;11.50;;
61204;SDS011;47068;55.780;37.520;2022-07-06T15:02:23;15.70;;;11.38;;
61204;SDS011;47068;55.780;37.520;2022-07-06T15:04:49;14.40;;;11.88;;
61204;SDS011;47068;55.780;37.520;2022-07-06T15:07:14;13.60;;;11.60;;
61204;SDS011;47068;55.780;37.520;2022-07-06T15:09:40;15.27;;;10.73;;
61204;SDS011;47068;55.780;37.520;2022-07-06T15:12:06;14.40;;;11.02;;
61204;SDS011;47068;55.780;37.520;2022-07-06T15:14:32;15.23;;;11.02;;
61204;SDS011;47068;55.780;37.520;2022-07-06T15:16:57;15.98;;;10.80;;
61204;SDS011;47068;55.780;37.520;2022-07-06T15:19:23;14.25;;;11.82;;
61204;SDS011;47068;55.780;37.520;2022-07-06T15:21:49;17.60;;;11.13;;
61204;SDS011;47068;55.780;37.520;2022-07-06T15:24:15;13.35;;;10.98;;
61204;SDS011;47068;55.780;37.520;2022-07-06T15:26:41;17.48;;;11.82;;
61204;SDS011;47068;55.780;37.520;2022-07-06T15:29:06;15.65;;;10.95;;
61204;SDS011;47068;55.780;37.520;2022-07-06T15:31:32;15.60;;;10.88;;
61204;SDS011;47068;55.780;37.520;2022-07-06T15:33:57;14.30;;;11.40;;
61204;SDS011;47068;55.780;37.520;2022-07-06T15:36:23;12.13;;;10.20;;
61204;SDS011;47068;55.780;37.520;2022-07-06T15:38:48;15.02;;;10.65;;
61204;SDS011;47068;55.780;37.520;2022-07-06T15:41:14;14.70;;;10.85;;
61204;SDS011;47068;55.780;37.520;2022-07-06T15:43:40;13.98;;;10.95;;
61204;SDS011;47068;55.780;37.520;2022-07-06T15:46:05;14.02;;;10.85;;
61204;SDS011;47068;55.780;37.520;2022-07-06T15:48:31;12.43;;;11.07;;
61204;SDS011;47068;55.780;37.520;2022-07-06T15:50:58;15.88;;;11.15;;
61204;SDS011;47068;55.780;37.520;2022-07-06T15:53:24;14.27;;;11.00;;
61204;SDS011;47068;55.780;37.520;2022-07-06T15:55:50;17.33;;;11.50;;